createdAt,value
2023-05-21T00:02:05.729Z,9.45
2023-05-21T00:04:33.896Z,9.07
2023-05-21T00:07:00.975Z,10.03
2023-05-21T00:09:28.202Z,10.03
2023-05-21T00:11:55.000Z,9.68
2023-05-21T00:14:21.768Z,9.90
2023-05-21T00:16:48.599Z,9.60
2023-05-21T00:19:15.545Z,10.23
2023-05-21T00:21:45.948Z,9.80
2023-05-21T00:24:12.953Z,9.82
2023-05-21T00:26:39.776Z,10.10
2023-05-21T00:29:06.664Z,10.15
2023-05-21T00:31:33.815Z,9.70
2023-05-21T00:34:00.894Z,9.03
2023-05-21T00:36:28.293Z,9.37
2023-05-21T00:38:55.071Z,9.57
2023-05-21T00:41:23.181Z,10.47
2023-05-21T00:43:50.290Z,10.20
2023-05-21T00:46:22.010Z,9.27
2023-05-21T00:48:50.780Z,8.83
2023-05-21T00:51:18.772Z,9.00
2023-05-21T00:53:47.076Z,8.93
2023-05-21T00:56:13.927Z,8.40
2023-05-21T00:58:41.548Z,8.07
2023-05-21T01:01:13.725Z,8.73
2023-05-21T01:03:41.153Z,8.60
2023-05-21T01:06:09.863Z,8.27
2023-05-21T01:08:38.274Z,8.67
2023-05-21T01:11:06.703Z,7.70
2023-05-21T01:13:37.060Z,8.83
2023-05-21T01:16:06.754Z,8.77
2023-05-21T01:18:38.409Z,8.73
2023-05-21T01:21:07.493Z,8.30
2023-05-21T01:23:34.778Z,8.55
2023-05-21T01:26:01.582Z,8.23
2023-05-21T01:28:29.877Z,8.60
2023-05-21T01:31:02.639Z,9.40
2023-05-21T01:33:45.568Z,9.17
2023-05-21T01:36:26.894Z,8.67
2023-05-21T01:39:09.405Z,9.23
2023-05-21T01:41:41.010Z,8.80
2023-05-21T01:44:10.068Z,9.53
2023-05-21T01:46:38.461Z,9.20
2023-05-21T01:49:06.684Z,7.97
2023-05-21T01:51:35.497Z,8.43
2023-05-21T01:54:03.237Z,7.63
2023-05-21T01:56:30.097Z,8.17
2023-05-21T01:58:59.516Z,8.57
2023-05-21T02:01:30.189Z,8.53
2023-05-21T02:03:58.075Z,8.30
2023-05-21T02:06:25.483Z,8.00
2023-05-21T02:08:52.405Z,8.63
2023-05-21T02:11:19.504Z,8.77
2023-05-21T02:13:46.384Z,8.40
2023-05-21T02:16:14.899Z,7.97
2023-05-21T02:18:45.351Z,8.27
2023-05-21T02:21:12.283Z,7.70
2023-05-21T02:23:39.069Z,7.30
2023-05-21T02:26:05.964Z,7.93
2023-05-21T02:28:33.121Z,7.93
2023-05-21T02:31:00.181Z,7.50
2023-05-21T02:33:27.078Z,8.13
2023-05-21T02:35:54.083Z,7.97
2023-05-21T02:38:23.124Z,8.27
2023-05-21T02:40:53.561Z,8.17
2023-05-21T02:43:20.597Z,8.13
2023-05-21T02:45:48.183Z,9.07
2023-05-21T02:48:15.247Z,8.50
2023-05-21T02:50:42.450Z,8.83
2023-05-21T02:53:09.405Z,8.57
2023-05-21T02:55:36.728Z,8.70
2023-05-21T02:58:03.676Z,9.17
2023-05-21T03:00:30.894Z,8.17
2023-05-21T03:02:57.871Z,9.03
2023-05-21T03:05:24.717Z,9.47
2023-05-21T03:07:51.585Z,9.03
2023-05-21T03:10:18.541Z,9.10
2023-05-21T03:12:45.676Z,10.10
2023-05-21T03:15:14.951Z,9.10
2023-05-21T03:17:42.414Z,9.17
2023-05-21T03:20:16.055Z,9.37
2023-05-21T03:22:44.575Z,8.97
2023-05-21T03:25:12.873Z,9.17
2023-05-21T03:27:40.077Z,9.77
2023-05-21T03:30:16.821Z,9.43
2023-05-21T03:33:00.236Z,9.20
2023-05-21T03:35:27.522Z,9.70
2023-05-21T03:37:54.499Z,8.20
2023-05-21T03:40:21.943Z,8.03
2023-05-21T03:42:49.152Z,7.77
2023-05-21T03:45:16.056Z,7.57
2023-05-21T03:48:21.073Z,7.77
2023-05-21T03:50:47.866Z,8.60
2023-05-21T03:53:15.639Z,8.33
2023-05-21T03:55:42.598Z,8.17
2023-05-21T03:58:10.833Z,8.27
2023-05-21T04:00:38.116Z,8.70
2023-05-21T04:03:07.211Z,9.30
2023-05-21T04:05:34.543Z,8.90
2023-05-21T04:08:01.771Z,8.07
2023-05-21T04:10:28.868Z,7.80
2023-05-21T04:12:55.677Z,7.50
2023-05-21T04:15:22.460Z,7.40
2023-05-21T04:17:50.387Z,7.10
2023-05-21T04:20:17.905Z,6.83
2023-05-21T04:22:44.932Z,6.93
2023-05-21T04:25:12.190Z,6.57
2023-05-21T04:27:39.387Z,6.50
2023-05-21T04:30:08.519Z,6.73
2023-05-21T04:32:36.773Z,7.03
2023-05-21T04:35:04.336Z,7.05
2023-05-21T04:37:35.357Z,6.45
2023-05-21T04:40:04.324Z,7.13
2023-05-21T04:42:33.019Z,6.35
2023-05-21T04:45:00.056Z,6.35
2023-05-21T04:47:35.626Z,6.47
2023-05-21T04:50:04.525Z,6.40
2023-05-21T04:52:31.752Z,6.43
2023-05-21T04:54:59.095Z,6.75
2023-05-21T04:57:26.071Z,6.85
2023-05-21T04:59:52.831Z,6.35
2023-05-21T05:02:19.723Z,6.88
2023-05-21T05:04:46.582Z,6.63
2023-05-21T05:07:13.770Z,6.65
2023-05-21T05:09:40.722Z,7.25
2023-05-21T05:12:08.406Z,5.93
2023-05-21T05:14:35.439Z,6.15
2023-05-21T05:17:02.258Z,5.78
2023-05-21T05:19:29.490Z,6.38
2023-05-21T05:21:56.920Z,6.30
2023-05-21T05:24:23.932Z,6.45
2023-05-21T05:26:51.540Z,6.25
2023-05-21T05:29:18.443Z,6.72
2023-05-21T05:31:45.344Z,6.35
2023-05-21T05:34:12.735Z,6.38
2023-05-21T05:36:39.565Z,7.30
2023-05-21T05:39:06.385Z,6.95
2023-05-21T05:41:33.240Z,6.75
2023-05-21T05:43:59.976Z,6.53
2023-05-21T05:46:29.993Z,6.07
2023-05-21T05:48:57.195Z,6.35
2023-05-21T05:51:24.193Z,6.40
2023-05-21T05:53:51.389Z,6.22
2023-05-21T05:56:18.216Z,6.30
2023-05-21T05:58:45.005Z,6.30
2023-05-21T06:01:14.178Z,6.53
2023-05-21T06:03:41.410Z,6.75
2023-05-21T06:06:14.520Z,7.63
2023-05-21T06:08:41.479Z,6.55
2023-05-21T06:11:08.499Z,7.15
2023-05-21T06:13:35.744Z,6.38
2023-05-21T06:16:04.273Z,6.90
2023-05-21T06:18:31.115Z,7.10
2023-05-21T06:20:57.869Z,6.85
2023-05-21T06:23:25.091Z,6.70
2023-05-21T06:25:52.278Z,5.70
2023-05-21T06:28:20.181Z,6.70
2023-05-21T06:30:48.505Z,6.50
2023-05-21T06:33:16.278Z,6.85
2023-05-21T06:35:43.966Z,6.63
2023-05-21T06:38:11.525Z,6.18
2023-05-21T06:40:38.432Z,6.68
2023-05-21T06:43:05.819Z,6.28
2023-05-21T06:45:51.605Z,6.35
2023-05-21T06:48:27.874Z,6.35
2023-05-21T06:50:54.901Z,6.13
2023-05-21T06:53:22.028Z,6.93
2023-05-21T06:55:53.865Z,6.60
2023-05-21T06:58:39.140Z,6.32
2023-05-21T07:01:06.104Z,5.80
2023-05-21T07:03:33.011Z,6.82
2023-05-21T07:05:59.894Z,6.57
2023-05-21T07:08:27.313Z,6.55
2023-05-21T07:10:56.391Z,6.32
2023-05-21T07:13:23.298Z,7.18
2023-05-21T07:15:50.219Z,6.22
2023-05-21T07:18:18.964Z,5.95
2023-05-21T07:20:45.761Z,6.18
2023-05-21T07:23:15.162Z,6.35
2023-05-21T07:25:41.926Z,6.07
2023-05-21T07:28:08.814Z,5.68
2023-05-21T07:30:36.401Z,6.00
2023-05-21T07:33:06.750Z,5.88
2023-05-21T07:35:33.676Z,5.00
2023-05-21T07:38:00.683Z,5.88
2023-05-21T07:40:27.591Z,5.88
2023-05-21T07:42:54.843Z,6.10
2023-05-21T07:45:23.475Z,6.35
2023-05-21T07:47:50.970Z,6.53
2023-05-21T07:50:17.858Z,5.97
2023-05-21T07:52:44.656Z,6.30
2023-05-21T07:55:11.561Z,5.93
2023-05-21T07:57:40.433Z,5.90
2023-05-21T08:00:14.286Z,5.55
2023-05-21T08:02:52.441Z,5.90
2023-05-21T08:05:21.260Z,6.13
2023-05-21T08:07:48.484Z,5.78
2023-05-21T08:10:17.158Z,6.38
2023-05-21T08:12:46.480Z,5.90
2023-05-21T08:15:13.331Z,5.50
2023-05-21T08:17:44.244Z,5.68
2023-05-21T08:20:11.849Z,5.35
2023-05-21T08:22:38.900Z,5.47
2023-05-21T08:25:08.579Z,5.28
2023-05-21T08:27:35.371Z,5.07
2023-05-21T08:30:03.235Z,5.40
2023-05-21T08:32:30.101Z,5.82
2023-05-21T08:34:57.802Z,6.07
2023-05-21T08:38:03.216Z,5.13
2023-05-21T08:40:41.537Z,5.25
2023-05-21T08:43:13.797Z,5.75
2023-05-21T08:45:54.691Z,5.60
2023-05-21T08:48:24.722Z,5.45
2023-05-21T08:50:53.316Z,4.97
2023-05-21T08:53:29.094Z,5.75
2023-05-21T08:55:57.571Z,6.07
2023-05-21T08:58:33.784Z,5.93
2023-05-21T09:01:00.901Z,5.78
2023-05-21T09:03:29.423Z,5.68
2023-05-21T09:05:57.457Z,5.63
2023-05-21T09:08:31.447Z,6.25
2023-05-21T09:11:03.363Z,5.70
2023-05-21T09:13:45.077Z,5.10
2023-05-21T09:16:22.956Z,4.65
2023-05-21T09:18:50.070Z,5.40
2023-05-21T09:21:24.549Z,5.30
2023-05-21T09:23:57.089Z,5.30
2023-05-21T09:26:25.101Z,5.35
2023-05-21T09:29:00.225Z,5.53
2023-05-21T09:31:27.573Z,5.22
2023-05-21T09:33:56.098Z,5.30
2023-05-21T09:36:25.100Z,5.00
2023-05-21T09:38:52.405Z,5.32
2023-05-21T09:41:22.261Z,5.10
2023-05-21T09:43:49.602Z,4.88
2023-05-21T09:46:21.139Z,5.35
2023-05-21T09:48:48.064Z,5.38
2023-05-21T09:51:19.652Z,5.60
2023-05-21T09:53:59.593Z,5.47
2023-05-21T09:56:30.794Z,4.80
2023-05-21T09:59:04.350Z,5.03
2023-05-21T10:01:33.985Z,4.88
2023-05-21T10:04:02.785Z,5.43
2023-05-21T10:06:32.240Z,5.18
2023-05-21T10:09:06.214Z,4.88
2023-05-21T10:11:34.737Z,4.88
2023-05-21T10:14:07.588Z,5.38
2023-05-21T10:16:36.452Z,5.05
2023-05-21T10:19:04.848Z,5.22
2023-05-21T10:21:33.515Z,5.68
2023-05-21T10:24:02.543Z,4.40
2023-05-21T10:26:30.963Z,4.90
2023-05-21T10:29:01.113Z,4.70
2023-05-21T10:31:28.608Z,4.95
2023-05-21T10:33:56.192Z,4.63
2023-05-21T10:36:24.515Z,4.82
2023-05-21T10:38:51.997Z,12.07
2023-05-21T10:41:21.930Z,5.15
2023-05-21T10:44:17.703Z,8.93
2023-05-21T10:47:16.893Z,5.18
2023-05-21T10:49:59.106Z,4.47
2023-05-21T10:52:58.298Z,4.45
2023-05-21T10:55:33.938Z,4.30
2023-05-21T10:58:16.501Z,4.55
2023-05-21T11:00:43.997Z,4.50
2023-05-21T11:03:14.012Z,4.80
2023-05-21T11:06:02.663Z,4.57
2023-05-21T11:08:36.332Z,4.32
2023-05-21T11:11:04.234Z,4.15
2023-05-21T11:13:50.630Z,3.90
2023-05-21T11:16:18.185Z,4.60
2023-05-21T11:18:44.907Z,4.25
2023-05-21T11:21:21.104Z,4.72
2023-05-21T11:23:51.445Z,4.15
2023-05-21T11:26:24.443Z,4.18
2023-05-21T11:29:11.781Z,4.47
2023-05-21T11:31:39.174Z,3.90
2023-05-21T11:34:13.735Z,4.15
2023-05-21T11:36:44.918Z,3.90
2023-05-21T11:39:21.890Z,4.18
2023-05-21T11:42:01.013Z,3.95
2023-05-21T11:44:43.153Z,4.32
2023-05-21T11:47:12.404Z,3.78
2023-05-21T11:49:39.630Z,3.97
2023-05-21T11:52:08.440Z,3.88
2023-05-21T11:54:46.539Z,3.70
2023-05-21T11:57:17.790Z,3.88
2023-05-21T11:59:48.987Z,3.65
2023-05-21T12:02:20.567Z,4.10
2023-05-21T12:04:49.042Z,4.00
2023-05-21T12:07:17.667Z,3.85
2023-05-21T12:09:45.520Z,3.67
2023-05-21T12:12:14.764Z,4.00
2023-05-21T12:14:46.375Z,3.85
2023-05-21T12:17:16.612Z,3.75
2023-05-21T12:19:43.857Z,4.00
2023-05-21T12:22:10.904Z,3.97
2023-05-21T12:24:38.997Z,4.53
2023-05-21T12:27:10.389Z,3.70
2023-05-21T12:29:38.753Z,4.05
2023-05-21T12:32:07.533Z,4.13
2023-05-21T12:34:54.937Z,4.20
2023-05-21T12:37:26.435Z,4.25
2023-05-21T12:39:55.791Z,3.70
2023-05-21T12:42:30.947Z,4.00
2023-05-21T12:44:58.516Z,3.80
2023-05-21T12:47:26.957Z,4.22
2023-05-21T12:49:58.041Z,4.13
2023-05-21T12:52:25.857Z,4.30
2023-05-21T12:54:54.292Z,3.85
2023-05-21T12:57:23.923Z,4.10
2023-05-21T12:59:53.389Z,3.90
2023-05-21T13:02:28.419Z,4.47
2023-05-21T13:05:06.942Z,3.88
2023-05-21T13:07:36.191Z,4.40
2023-05-21T13:10:04.405Z,4.50
2023-05-21T13:12:32.632Z,4.60
2023-05-21T13:15:02.082Z,4.85
2023-05-21T13:17:29.288Z,4.55
2023-05-21T13:20:16.772Z,4.60
2023-05-21T13:22:47.417Z,4.63
2023-05-21T13:25:18.348Z,4.10
2023-05-21T13:27:45.646Z,4.72
2023-05-21T13:30:12.857Z,4.85
2023-05-21T13:32:41.135Z,4.80
2023-05-21T13:35:09.401Z,5.22
2023-05-21T13:37:36.590Z,4.38
2023-05-21T13:40:11.471Z,4.45
2023-05-21T13:42:38.936Z,4.78
2023-05-21T13:45:10.885Z,4.55
2023-05-21T13:47:40.172Z,4.72
2023-05-21T13:50:08.562Z,5.03
2023-05-21T13:52:35.864Z,4.88
2023-05-21T13:55:02.940Z,4.70
2023-05-21T13:57:31.147Z,4.75
2023-05-21T13:59:59.158Z,4.72
2023-05-21T14:02:26.399Z,4.88
2023-05-21T14:04:53.957Z,4.70
2023-05-21T14:07:22.190Z,4.38
2023-05-21T14:09:49.366Z,4.25
2023-05-21T14:12:17.011Z,4.72
2023-05-21T14:14:44.131Z,4.53
2023-05-21T14:17:11.246Z,3.97
2023-05-21T14:19:38.061Z,3.75
2023-05-21T14:22:05.008Z,4.10
2023-05-21T14:24:31.775Z,4.35
2023-05-21T14:26:58.587Z,4.28
2023-05-21T14:29:25.324Z,4.00
2023-05-21T14:31:52.134Z,4.00
2023-05-21T14:34:19.039Z,3.92
2023-05-21T14:36:46.020Z,4.35
2023-05-21T14:39:13.018Z,4.00
2023-05-21T14:41:40.146Z,4.45
2023-05-21T14:44:06.960Z,4.20
2023-05-21T14:46:33.974Z,4.05
2023-05-21T14:49:00.999Z,4.40
2023-05-21T14:51:27.991Z,4.32
2023-05-21T14:53:57.182Z,3.67
2023-05-21T14:56:27.341Z,4.28
2023-05-21T14:58:54.552Z,3.92
2023-05-21T15:01:21.917Z,3.88
2023-05-21T15:03:49.245Z,3.35
2023-05-21T15:06:16.212Z,4.20
2023-05-21T15:08:42.934Z,3.83
2023-05-21T15:11:10.433Z,4.22
2023-05-21T15:13:37.931Z,4.20
2023-05-21T15:16:04.911Z,3.88
2023-05-21T15:18:31.701Z,3.70
2023-05-21T15:20:59.414Z,3.70
2023-05-21T15:23:26.563Z,3.85
2023-05-21T15:25:53.354Z,3.92
2023-05-21T15:28:20.111Z,4.00
2023-05-21T15:30:46.872Z,3.80
2023-05-21T15:33:13.742Z,4.28
2023-05-21T15:35:41.212Z,3.88
2023-05-21T15:38:08.390Z,4.05
2023-05-21T15:40:35.173Z,4.35
2023-05-21T15:43:01.937Z,4.57
2023-05-21T15:45:28.743Z,4.45
2023-05-21T15:47:55.714Z,3.95
2023-05-21T15:50:22.501Z,3.80
2023-05-21T15:52:51.017Z,3.70
2023-05-21T15:55:20.076Z,3.97
2023-05-21T15:57:46.867Z,3.75
2023-05-21T16:00:13.961Z,4.28
2023-05-21T16:02:41.975Z,4.03
2023-05-21T16:05:09.342Z,3.92
2023-05-21T16:07:38.338Z,3.85
2023-05-21T16:10:06.634Z,3.80
2023-05-21T16:12:33.403Z,3.65
2023-05-21T16:15:00.368Z,3.60
2023-05-21T16:17:27.293Z,3.40
2023-05-21T16:19:54.148Z,3.90
2023-05-21T16:22:20.935Z,3.75
2023-05-21T16:24:48.275Z,3.72
2023-05-21T16:27:15.362Z,3.58
2023-05-21T16:29:42.710Z,4.10
2023-05-21T16:32:10.945Z,3.83
2023-05-21T16:34:37.778Z,4.30
2023-05-21T16:37:04.772Z,3.70
2023-05-21T16:39:31.619Z,3.70
2023-05-21T16:41:59.835Z,3.70
2023-05-21T16:44:27.525Z,3.83
2023-05-21T16:46:54.415Z,3.85
2023-05-21T16:49:21.208Z,4.20
2023-05-21T16:51:47.952Z,4.10
2023-05-21T16:54:14.685Z,3.90
2023-05-21T16:56:41.472Z,3.72
2023-05-21T16:59:08.223Z,3.80
2023-05-21T17:01:35.044Z,3.92
2023-05-21T17:04:02.079Z,4.38
2023-05-21T17:06:28.890Z,3.80
2023-05-21T17:08:55.772Z,4.40
2023-05-21T17:11:22.911Z,4.13
2023-05-21T17:13:49.724Z,4.30
2023-05-21T17:16:16.518Z,4.30
2023-05-21T17:18:43.543Z,3.78
2023-05-21T17:21:10.599Z,3.65
2023-05-21T17:23:37.400Z,4.00
2023-05-21T17:26:06.965Z,4.10
2023-05-21T17:28:33.794Z,3.92
2023-05-21T17:31:01.835Z,4.07
2023-05-21T17:33:28.833Z,4.00
2023-05-21T17:35:57.107Z,4.20
2023-05-21T17:38:23.995Z,3.88
2023-05-21T17:40:50.888Z,4.15
2023-05-21T17:43:18.083Z,4.70
2023-05-21T17:45:44.981Z,3.70
2023-05-21T17:48:12.254Z,4.30
2023-05-21T17:50:39.141Z,4.07
2023-05-21T17:53:05.979Z,4.18
2023-05-21T17:55:32.757Z,3.80
2023-05-21T17:58:01.077Z,3.95
2023-05-21T18:00:28.124Z,3.80
2023-05-21T18:02:54.927Z,4.55
2023-05-21T18:05:22.847Z,4.53
2023-05-21T18:07:49.750Z,3.92
2023-05-21T18:10:16.600Z,4.30
2023-05-21T18:12:46.362Z,4.35
2023-05-21T18:15:14.692Z,4.45
2023-05-21T18:17:42.019Z,4.43
2023-05-21T18:20:09.497Z,4.55
2023-05-21T18:22:36.727Z,4.80
2023-05-21T18:25:04.504Z,4.25
2023-05-21T18:27:31.584Z,4.43
2023-05-21T18:30:02.330Z,4.30
2023-05-21T18:32:29.366Z,4.28
2023-05-21T18:34:56.703Z,4.20
2023-05-21T18:37:23.824Z,4.38
2023-05-21T18:39:51.022Z,4.20
2023-05-21T18:42:17.774Z,3.95
2023-05-21T18:44:46.538Z,4.45
2023-05-21T18:47:13.813Z,3.92
2023-05-21T18:49:40.530Z,4.32
2023-05-21T18:52:07.801Z,4.68
2023-05-21T18:54:34.567Z,4.47
2023-05-21T18:57:01.719Z,5.03
2023-05-21T18:59:29.266Z,4.57
2023-05-21T19:01:56.189Z,4.85
2023-05-21T19:04:23.084Z,5.07
2023-05-21T19:06:50.018Z,5.05
2023-05-21T19:09:17.174Z,4.60
2023-05-21T19:11:44.197Z,5.60
2023-05-21T19:14:11.171Z,5.82
2023-05-21T19:16:38.242Z,4.93
2023-05-21T19:19:06.083Z,5.18
2023-05-21T19:21:33.218Z,5.22
2023-05-21T19:24:00.114Z,5.28
2023-05-21T19:26:27.228Z,5.80
2023-05-21T19:28:54.617Z,5.95
2023-05-21T19:31:23.324Z,5.88
2023-05-21T19:33:50.650Z,5.55
2023-05-21T19:36:18.692Z,5.63
2023-05-21T19:38:49.270Z,6.18
2023-05-21T19:41:19.977Z,5.72
2023-05-21T19:43:47.133Z,6.03
2023-05-21T19:46:17.192Z,6.00
2023-05-21T19:48:45.080Z,6.38
2023-05-21T19:51:11.931Z,6.10
2023-05-21T19:53:38.860Z,5.80
2023-05-21T19:56:05.899Z,6.68
2023-05-21T19:58:33.183Z,6.32
2023-05-21T20:01:00.126Z,6.28
2023-05-21T20:03:29.136Z,6.75
2023-05-21T20:05:56.068Z,6.82
2023-05-21T20:08:23.028Z,7.20
2023-05-21T20:10:51.903Z,6.90
2023-05-21T20:13:19.585Z,6.18
2023-05-21T20:15:48.020Z,7.15
2023-05-21T20:18:15.477Z,7.07
2023-05-21T20:20:43.391Z,7.53
2023-05-21T20:23:10.250Z,7.00
2023-05-21T20:25:37.059Z,7.13
2023-05-21T20:28:05.314Z,7.40
2023-05-21T20:30:34.068Z,7.57
2023-05-21T20:33:02.555Z,7.55
2023-05-21T20:35:30.148Z,7.47
2023-05-21T20:37:57.011Z,6.90
2023-05-21T20:40:23.743Z,7.72
2023-05-21T20:42:52.040Z,7.60
2023-05-21T20:45:18.914Z,7.53
2023-05-21T20:47:47.834Z,7.30
2023-05-21T20:50:17.967Z,8.10
2023-05-21T20:52:46.998Z,7.60
2023-05-21T20:55:14.961Z,7.85
2023-05-21T20:57:42.214Z,9.07
2023-05-21T21:00:12.074Z,8.25
2023-05-21T21:02:39.173Z,10.02
2023-05-21T21:05:06.673Z,9.23
2023-05-21T21:07:34.299Z,9.07
2023-05-21T21:10:01.625Z,8.52
2023-05-21T21:12:28.923Z,9.10
2023-05-21T21:14:56.122Z,8.35
2023-05-21T21:17:23.395Z,8.50
2023-05-21T21:19:50.358Z,9.38
2023-05-21T21:22:18.483Z,8.75
2023-05-21T21:24:45.825Z,8.68
2023-05-21T21:27:12.678Z,8.63
2023-05-21T21:29:39.851Z,8.63
2023-05-21T21:32:07.059Z,9.02
2023-05-21T21:34:34.678Z,8.73
2023-05-21T21:37:01.462Z,9.40
2023-05-21T21:39:28.443Z,9.15
2023-05-21T21:41:55.774Z,9.48
2023-05-21T21:44:22.593Z,9.05
2023-05-21T21:46:49.534Z,9.13
2023-05-21T21:49:19.118Z,8.75
2023-05-21T21:51:46.029Z,9.05
2023-05-21T21:54:12.808Z,9.82
2023-05-21T21:56:41.298Z,9.23
2023-05-21T21:59:08.206Z,9.43
2023-05-21T22:01:36.063Z,9.18
2023-05-21T22:04:03.405Z,8.85
2023-05-21T22:06:31.384Z,9.35
2023-05-21T22:08:58.285Z,9.70
2023-05-21T22:11:27.028Z,9.27
2023-05-21T22:13:53.925Z,9.98
2023-05-21T22:16:24.958Z,8.85
2023-05-21T22:18:54.270Z,9.95
2023-05-21T22:21:21.785Z,9.35
2023-05-21T22:23:48.854Z,9.43
2023-05-21T22:26:15.921Z,9.68
2023-05-21T22:28:42.913Z,9.25
2023-05-21T22:31:09.994Z,9.00
2023-05-21T22:33:37.184Z,10.05
2023-05-21T22:36:04.304Z,9.05
2023-05-21T22:38:31.169Z,9.38
2023-05-21T22:40:58.045Z,9.38
2023-05-21T22:43:26.190Z,9.35
2023-05-21T22:45:53.075Z,9.48
2023-05-21T22:48:22.004Z,9.40
2023-05-21T22:50:50.332Z,8.65
2023-05-21T22:53:17.834Z,9.02
2023-05-21T22:55:44.826Z,9.05
2023-05-21T22:58:11.575Z,9.73
2023-05-21T23:00:38.515Z,10.05
2023-05-21T23:03:05.609Z,9.45
2023-05-21T23:05:32.404Z,10.40
2023-05-21T23:07:59.534Z,9.73
2023-05-21T23:10:26.450Z,9.93
2023-05-21T23:12:54.139Z,9.63
2023-05-21T23:15:21.697Z,9.90
2023-05-21T23:17:48.645Z,10.20
2023-05-21T23:20:15.567Z,11.68
2023-05-21T23:22:42.317Z,10.32
2023-05-21T23:25:09.660Z,9.60
2023-05-21T23:27:36.391Z,11.18
2023-05-21T23:30:03.358Z,10.40
2023-05-21T23:32:30.305Z,10.45
2023-05-21T23:34:57.180Z,10.30
2023-05-21T23:37:24.028Z,10.93
2023-05-21T23:39:51.489Z,9.65
2023-05-21T23:42:18.781Z,10.82
2023-05-21T23:44:45.575Z,10.90
2023-05-21T23:47:12.300Z,10.00
2023-05-21T23:49:39.590Z,10.00
2023-05-21T23:52:07.016Z,11.00
2023-05-21T23:54:33.770Z,11.07
2023-05-21T23:57:01.385Z,11.33
2023-05-21T23:59:28.093Z,10.85
